createdAt,value
2023-02-27T00:00:52.767Z,101384.41
2023-02-27T00:03:20.539Z,101385.13
2023-02-27T00:05:48.376Z,101393.53
2023-02-27T00:08:16.185Z,101389.25
2023-02-27T00:10:44.006Z,101384.13
2023-02-27T00:13:11.735Z,101380.84
2023-02-27T00:15:41.047Z,101385.41
2023-02-27T00:18:08.858Z,101386.41
2023-02-27T00:20:38.325Z,101397.84
2023-02-27T00:23:06.565Z,101399.22
2023-02-27T00:25:34.390Z,101395.25
2023-02-27T00:28:02.099Z,101393.69
2023-02-27T00:30:29.851Z,101396.69
2023-02-27T00:32:57.740Z,101404.66
2023-02-27T00:35:27.374Z,101402.81
2023-02-27T00:37:57.457Z,101407.66
2023-02-27T00:40:26.443Z,101406.81
2023-02-27T00:42:54.258Z,101400.25
2023-02-27T00:45:22.317Z,101405.78
2023-02-27T00:47:50.158Z,101406.38
2023-02-27T00:50:20.226Z,101403.09
2023-02-27T00:52:49.743Z,101403.38
2023-02-27T00:55:17.736Z,101401.50
2023-02-27T00:57:45.612Z,101393.38
2023-02-27T01:00:13.749Z,101394.09
2023-02-27T01:02:43.611Z,101387.69
2023-02-27T01:05:11.447Z,101387.94
2023-02-27T01:07:39.232Z,101395.41
2023-02-27T01:10:07.210Z,101387.09
2023-02-27T01:12:34.956Z,101385.69
2023-02-27T01:15:06.996Z,101386.53
2023-02-27T01:17:34.883Z,101399.94
2023-02-27T01:20:02.690Z,101389.81
2023-02-27T01:22:34.171Z,101395.41
2023-02-27T01:25:02.009Z,101393.09
2023-02-27T01:27:29.779Z,101394.78
2023-02-27T01:29:57.587Z,101390.94
2023-02-27T01:32:28.489Z,101393.38
2023-02-27T01:34:58.915Z,101392.50
2023-02-27T01:37:26.702Z,101393.50
2023-02-27T01:39:54.541Z,101391.38
2023-02-27T01:42:22.324Z,101392.25
2023-02-27T01:44:50.325Z,101393.38
2023-02-27T01:47:18.406Z,101392.09
2023-02-27T01:49:46.224Z,101398.50
2023-02-27T01:52:16.341Z,101400.91
2023-02-27T01:54:44.082Z,101405.50
2023-02-27T01:57:11.794Z,101396.50
2023-02-27T01:59:39.805Z,101405.66
2023-02-27T02:02:07.592Z,101410.78
2023-02-27T02:04:35.526Z,101406.50
2023-02-27T02:07:03.390Z,101399.34
2023-02-27T02:09:31.144Z,101407.91
2023-02-27T02:11:58.959Z,101404.19
2023-02-27T02:14:26.799Z,101414.91
2023-02-27T02:16:55.416Z,101410.09
2023-02-27T02:19:23.332Z,101410.22
2023-02-27T02:21:51.534Z,101405.66
2023-02-27T02:24:19.341Z,101403.09
2023-02-27T02:26:49.097Z,101405.81
2023-02-27T02:29:18.194Z,101402.66
2023-02-27T02:31:46.201Z,101402.22
2023-02-27T02:34:14.924Z,101399.66
2023-02-27T02:36:42.681Z,101395.22
2023-02-27T02:39:10.699Z,101391.09
2023-02-27T02:41:38.490Z,101400.78
2023-02-27T02:44:06.320Z,101398.94
2023-02-27T02:46:34.099Z,101395.94
2023-02-27T02:49:03.011Z,101400.63
2023-02-27T02:51:30.767Z,101395.94
2023-02-27T02:53:58.529Z,101406.50
2023-02-27T02:56:26.302Z,101407.63
2023-02-27T02:58:54.241Z,101401.34
2023-02-27T03:01:22.232Z,101414.47
2023-02-27T03:03:50.174Z,101408.75
2023-02-27T03:06:17.963Z,101402.22
2023-02-27T03:08:45.896Z,101405.06
2023-02-27T03:11:13.668Z,101407.34
2023-02-27T03:13:41.594Z,101413.50
2023-02-27T03:16:09.566Z,101408.22
2023-02-27T03:18:37.422Z,101419.63
2023-02-27T03:21:05.607Z,101414.19
2023-02-27T03:23:33.425Z,101418.47
2023-02-27T03:26:01.438Z,101415.34
2023-02-27T03:28:29.277Z,101414.63
2023-02-27T03:30:57.029Z,101420.19
2023-02-27T03:33:25.034Z,101419.63
2023-02-27T03:35:52.800Z,101422.06
2023-02-27T03:38:20.584Z,101429.19
2023-02-27T03:40:48.530Z,101423.63
2023-02-27T03:43:16.248Z,101426.91
2023-02-27T03:45:44.316Z,101429.47
2023-02-27T03:48:12.075Z,101427.63
2023-02-27T03:50:39.936Z,101434.06
2023-02-27T03:53:07.705Z,101430.47
2023-02-27T03:55:35.581Z,101432.75
2023-02-27T03:58:03.328Z,101434.63
2023-02-27T04:00:33.121Z,101434.75
2023-02-27T04:03:00.927Z,101439.91
2023-02-27T04:05:28.717Z,101445.34
2023-02-27T04:07:55.527Z,101451.00
2023-02-27T04:10:25.654Z,101450.75
2023-02-27T04:12:55.326Z,101461.44
2023-02-27T04:15:23.108Z,101466.31
2023-02-27T04:17:50.875Z,101461.31
2023-02-27T04:20:18.853Z,101461.03
2023-02-27T04:22:46.680Z,101459.47
2023-02-27T04:25:14.408Z,101475.16
2023-02-27T04:27:42.155Z,101472.19
2023-02-27T04:30:09.917Z,101469.31
2023-02-27T04:32:37.773Z,101467.56
2023-02-27T04:35:05.582Z,101480.44
2023-02-27T04:37:33.283Z,101479.25
2023-02-27T04:40:01.112Z,101480.28
2023-02-27T04:42:30.321Z,101488.41
2023-02-27T04:45:00.682Z,101483.72
2023-02-27T04:47:31.155Z,101477.28
2023-02-27T04:50:10.036Z,101489.72
2023-02-27T04:52:38.965Z,101485.84
2023-02-27T04:55:07.787Z,101486.44
2023-02-27T05:01:16.614Z,101488.13
2023-02-27T05:03:48.391Z,101492.69
2023-02-27T05:06:17.327Z,101494.41
2023-02-27T05:08:50.735Z,101488.97
2023-02-27T05:14:02.916Z,101489.59
2023-02-27T05:16:33.119Z,101493.03
2023-02-27T05:19:01.085Z,101496.13
2023-02-27T05:21:31.458Z,101482.69
2023-02-27T05:24:01.421Z,101492.13
2023-02-27T05:26:29.439Z,101490.41
2023-02-27T05:28:57.368Z,101484.00
2023-02-27T05:31:25.526Z,101495.53
2023-02-27T05:33:53.513Z,101501.88
2023-02-27T05:36:21.381Z,101488.34
2023-02-27T05:38:49.618Z,101500.78
2023-02-27T05:41:17.460Z,101500.50
2023-02-27T05:43:45.440Z,101501.06
2023-02-27T05:46:13.414Z,101512.88
2023-02-27T05:48:41.391Z,101511.91
2023-02-27T05:51:09.312Z,101514.75
2023-02-27T05:53:37.221Z,101514.47
2023-02-27T05:56:05.094Z,101515.00
2023-02-27T05:58:33.059Z,101511.72
2023-02-27T06:01:00.934Z,101511.81
2023-02-27T06:03:28.832Z,101511.09
2023-02-27T06:05:57.027Z,101524.94
2023-02-27T06:08:24.913Z,101523.22
2023-02-27T06:10:52.756Z,101522.22
2023-02-27T06:13:20.638Z,101520.78
2023-02-27T06:15:48.601Z,101529.47
2023-02-27T06:18:23.758Z,101530.63
2023-02-27T06:20:51.722Z,101528.91
2023-02-27T06:23:19.568Z,101526.59
2023-02-27T06:25:47.455Z,101535.75
2023-02-27T06:28:15.445Z,101539.88
2023-02-27T06:30:45.288Z,101535.19
2023-02-27T06:33:14.133Z,101541.00
2023-02-27T06:35:42.075Z,101538.06
2023-02-27T06:38:10.741Z,101543.50
2023-02-27T06:40:38.884Z,101545.50
2023-02-27T06:43:06.781Z,101549.91
2023-02-27T06:45:34.893Z,101557.19
2023-02-27T06:48:02.911Z,101555.75
2023-02-27T06:50:30.929Z,101565.19
2023-02-27T06:52:58.807Z,101572.63
2023-02-27T06:55:26.776Z,101571.75
2023-02-27T06:57:54.707Z,101571.75
2023-02-27T07:00:22.642Z,101574.31
2023-02-27T07:02:50.622Z,101574.31
2023-02-27T07:05:18.643Z,101576.88
2023-02-27T07:07:46.658Z,101571.22
2023-02-27T07:10:14.597Z,101565.78
2023-02-27T07:12:42.572Z,101562.34
2023-02-27T07:15:10.439Z,101563.19
2023-02-27T07:17:38.347Z,101568.91
2023-02-27T07:20:06.547Z,101572.75
2023-02-27T07:22:34.468Z,101580.44
2023-02-27T07:25:02.415Z,101578.72
2023-02-27T07:27:30.372Z,101561.78
2023-02-27T07:29:58.283Z,101564.06
2023-02-27T07:32:26.132Z,101567.50
2023-02-27T07:34:56.018Z,101567.78
2023-02-27T07:37:24.744Z,101566.75
2023-02-27T07:39:53.434Z,101579.59
2023-02-27T07:42:21.397Z,101569.91
2023-02-27T07:44:49.342Z,101569.19
2023-02-27T07:47:19.941Z,101574.63
2023-02-27T07:49:47.901Z,101570.19
2023-02-27T07:52:15.812Z,101576.06
2023-02-27T07:54:45.037Z,101568.94
2023-02-27T07:57:12.986Z,101574.22
2023-02-27T07:59:40.816Z,101576.66
2023-02-27T08:02:08.686Z,101585.66
2023-02-27T08:04:36.581Z,101575.81
2023-02-27T08:07:05.163Z,101584.66
2023-02-27T08:09:33.017Z,101581.84
2023-02-27T08:12:03.008Z,101584.94
2023-02-27T08:14:30.910Z,101585.66
2023-02-27T08:17:00.363Z,101589.81
2023-02-27T08:19:28.342Z,101595.69
2023-02-27T08:22:00.761Z,101599.53
2023-02-27T08:24:28.668Z,101609.53
2023-02-27T08:26:57.390Z,101607.25
2023-02-27T08:29:42.119Z,101605.69
2023-02-27T08:32:10.115Z,101606.94
2023-02-27T08:34:40.662Z,101611.78
2023-02-27T08:37:08.701Z,101603.19
2023-02-27T08:39:37.805Z,101602.91
2023-02-27T08:42:07.203Z,101597.50
2023-02-27T08:44:35.132Z,101603.19
2023-02-27T08:47:02.997Z,101608.34
2023-02-27T08:49:30.902Z,101611.66
2023-02-27T08:51:58.917Z,101618.47
2023-02-27T08:54:26.880Z,101618.75
2023-02-27T08:56:54.759Z,101617.50
2023-02-27T08:59:47.050Z,101620.19
2023-02-27T09:02:14.938Z,101613.50
2023-02-27T09:04:42.800Z,101610.38
2023-02-27T09:10:07.358Z,101617.25
2023-02-27T09:12:35.240Z,101623.53
2023-02-27T09:15:03.158Z,101627.25
2023-02-27T09:17:31.106Z,101628.25
2023-02-27T09:19:59.084Z,101626.53
2023-02-27T09:22:26.999Z,101623.81
2023-02-27T09:24:54.913Z,101622.34
2023-02-27T09:27:23.937Z,101614.94
2023-02-27T09:29:55.636Z,101627.38
2023-02-27T09:32:23.610Z,101625.25
2023-02-27T09:34:51.623Z,101632.13
2023-02-27T09:37:20.108Z,101622.72
2023-02-27T09:39:48.062Z,101623.59
2023-02-27T09:42:18.154Z,101632.59
2023-02-27T09:44:47.699Z,101638.00
2023-02-27T09:47:15.683Z,101635.28
2023-02-27T09:49:43.619Z,101644.28
2023-02-27T09:52:11.587Z,101634.28
2023-02-27T09:54:39.459Z,101631.56
2023-02-27T09:57:07.349Z,101642.31
2023-02-27T09:59:35.294Z,101641.56
2023-02-27T10:02:06.379Z,101642.44
2023-02-27T10:04:35.318Z,101643.03
2023-02-27T10:07:03.140Z,101639.59
2023-02-27T10:09:31.531Z,101650.72
2023-02-27T10:11:59.487Z,101650.72
2023-02-27T10:14:29.577Z,101642.72
2023-02-27T10:16:57.524Z,101645.00
2023-02-27T10:19:25.481Z,101644.41
2023-02-27T10:21:53.698Z,101649.84
2023-02-27T10:24:23.812Z,101649.44
2023-02-27T10:26:52.889Z,101645.75
2023-02-27T10:29:20.752Z,101641.56
2023-02-27T10:31:48.748Z,101642.44
2023-02-27T10:34:17.304Z,101644.84
2023-02-27T10:36:47.522Z,101650.44
2023-02-27T10:39:15.700Z,101639.44
2023-02-27T10:41:43.600Z,101651.16
2023-02-27T10:44:11.458Z,101652.16
2023-02-27T10:46:39.306Z,101646.16
2023-02-27T10:49:08.737Z,101653.28
2023-02-27T10:51:51.298Z,101655.88
2023-02-27T10:54:20.433Z,101651.56
2023-02-27T10:56:50.745Z,101657.00
2023-02-27T10:59:18.553Z,101652.56
2023-02-27T11:01:48.498Z,101645.75
2023-02-27T11:04:18.320Z,101644.84
2023-02-27T11:06:47.538Z,101649.59
2023-02-27T11:09:15.460Z,101645.88
2023-02-27T11:11:46.181Z,101638.75
2023-02-27T11:14:16.559Z,101639.59
2023-02-27T11:16:44.348Z,101640.72
2023-02-27T11:19:14.096Z,101631.84
2023-02-27T11:21:42.272Z,101637.84
2023-02-27T11:24:10.027Z,101626.75
2023-02-27T11:26:38.025Z,101629.47
2023-02-27T11:29:05.823Z,101631.28
2023-02-27T11:31:33.896Z,101634.44
2023-02-27T11:34:02.118Z,101628.75
2023-02-27T11:36:29.890Z,101623.72
2023-02-27T11:38:57.604Z,101631.56
2023-02-27T11:41:26.727Z,101621.84
2023-02-27T11:43:56.027Z,101623.44
2023-02-27T11:46:47.231Z,101615.28
2023-02-27T11:49:13.857Z,101614.03
2023-02-27T11:51:41.741Z,101613.91
2023-02-27T11:54:09.616Z,101613.91
2023-02-27T11:56:37.424Z,101608.38
2023-02-27T11:59:05.666Z,101614.66
2023-02-27T12:01:33.450Z,101604.78
2023-02-27T12:04:01.295Z,101600.47
2023-02-27T12:06:29.335Z,101602.22
2023-02-27T12:09:00.117Z,101608.06
2023-02-27T12:11:29.729Z,101607.34
2023-02-27T12:13:57.669Z,101603.31
2023-02-27T12:16:25.936Z,101602.47
2023-02-27T12:18:54.016Z,101605.16
2023-02-27T12:21:21.895Z,101606.88
2023-02-27T12:23:49.699Z,101599.63
2023-02-27T12:26:17.461Z,101597.75
2023-02-27T12:28:45.295Z,101608.50
2023-02-27T12:31:13.151Z,101608.38
2023-02-27T12:33:41.077Z,101601.06
2023-02-27T12:36:08.918Z,101598.97
2023-02-27T12:38:37.142Z,101606.81
2023-02-27T12:41:04.953Z,101604.69
2023-02-27T12:43:32.811Z,101602.81
2023-02-27T12:46:00.662Z,101603.94
2023-02-27T12:48:28.556Z,101606.13
2023-02-27T12:50:56.395Z,101606.25
2023-02-27T12:53:24.213Z,101606.53
2023-02-27T12:55:52.169Z,101604.25
2023-02-27T12:58:19.905Z,101600.00
2023-02-27T13:00:47.692Z,101605.44
2023-02-27T13:03:15.527Z,101597.53
2023-02-27T13:05:44.368Z,101598.56
2023-02-27T13:08:14.135Z,101595.97
2023-02-27T13:10:42.113Z,101602.53
2023-02-27T13:13:09.971Z,101605.53
2023-02-27T13:15:37.925Z,101595.41
2023-02-27T13:18:05.721Z,101593.41
2023-02-27T13:20:34.683Z,101589.69
2023-02-27T13:23:02.650Z,101595.28
2023-02-27T13:25:30.811Z,101591.69
2023-02-27T13:27:58.671Z,101588.97
2023-02-27T13:30:26.535Z,101587.25
2023-02-27T13:32:54.660Z,101589.69
2023-02-27T13:35:28.224Z,101590.97
2023-02-27T13:37:59.234Z,101584.56
2023-02-27T13:40:27.117Z,101587.13
2023-02-27T13:42:55.211Z,101592.13
2023-02-27T13:45:28.302Z,101593.00
2023-02-27T13:47:56.978Z,101591.41
2023-02-27T13:50:24.794Z,101591.25
2023-02-27T13:52:52.586Z,101593.00
2023-02-27T13:55:20.358Z,101594.56
2023-02-27T13:57:48.144Z,101576.00
2023-02-27T14:00:16.377Z,101584.13
2023-02-27T14:02:58.154Z,101576.84
2023-02-27T14:05:31.578Z,101577.28
2023-02-27T14:08:02.275Z,101586.16
2023-02-27T14:10:30.233Z,101580.72
2023-02-27T14:13:03.048Z,101590.84
2023-02-27T14:15:31.098Z,101589.84
2023-02-27T14:18:11.444Z,101591.56
2023-02-27T14:20:45.518Z,101587.00
2023-02-27T14:23:13.496Z,101591.88
2023-02-27T14:25:41.252Z,101592.41
2023-02-27T14:28:09.080Z,101595.13
2023-02-27T14:30:36.858Z,101601.69
2023-02-27T14:33:19.511Z,101594.66
2023-02-27T14:35:49.519Z,101599.41
2023-02-27T14:38:22.712Z,101600.88
2023-02-27T14:40:50.493Z,101598.75
2023-02-27T14:43:18.530Z,101614.19
2023-02-27T14:45:48.155Z,101619.75
2023-02-27T14:48:23.290Z,101625.63
2023-02-27T14:51:02.378Z,101631.81
2023-02-27T14:53:34.776Z,101634.28
2023-02-27T14:56:14.141Z,101638.38
2023-02-27T14:58:43.206Z,101637.66
2023-02-27T15:01:12.109Z,101634.94
2023-02-27T15:03:45.387Z,101633.09
2023-02-27T15:06:15.308Z,101626.63
2023-02-27T15:08:43.151Z,101627.78
2023-02-27T15:11:11.349Z,101626.06
2023-02-27T15:13:39.204Z,101630.66
2023-02-27T15:16:16.138Z,101619.78
2023-02-27T15:18:44.281Z,101625.22
2023-02-27T15:21:13.721Z,101629.22
2023-02-27T15:23:41.701Z,101629.22
2023-02-27T15:26:09.882Z,101625.38
2023-02-27T15:28:38.276Z,101629.75
2023-02-27T15:31:06.731Z,101624.31
2023-02-27T15:33:36.030Z,101627.44
2023-02-27T15:39:04.922Z,101626.91
2023-02-27T15:41:36.942Z,101632.44
2023-02-27T15:44:11.659Z,101630.59
2023-02-27T15:47:17.158Z,101636.19
2023-02-27T15:49:58.953Z,101643.06
2023-02-27T15:52:27.094Z,101642.75
2023-02-27T15:54:54.875Z,101646.38
2023-02-27T15:57:45.302Z,101648.88
2023-02-27T16:00:19.367Z,101647.53
2023-02-27T16:02:47.362Z,101648.53
2023-02-27T16:05:20.818Z,101650.91
2023-02-27T16:07:48.614Z,101653.63
2023-02-27T16:10:18.623Z,101662.94
2023-02-27T16:12:46.991Z,101658.13
2023-02-27T16:15:30.722Z,101659.13
2023-02-27T16:18:28.850Z,101677.00
2023-02-27T16:21:04.036Z,101670.28
2023-02-27T16:23:32.088Z,101666.72
2023-02-27T16:26:13.750Z,101670.72
2023-02-27T16:28:43.922Z,101674.84
2023-02-27T16:31:22.241Z,101682.00
2023-02-27T16:33:50.183Z,101683.25
2023-02-27T16:36:20.282Z,101681.75
2023-02-27T16:38:48.075Z,101686.16
2023-02-27T16:41:17.190Z,101687.72
2023-02-27T16:43:45.202Z,101689.59
2023-02-27T16:46:15.869Z,101696.19
2023-02-27T16:48:44.156Z,101694.63
2023-02-27T16:51:12.433Z,101698.34
2023-02-27T16:53:40.257Z,101698.91
2023-02-27T16:56:08.127Z,101698.06
2023-02-27T16:58:36.169Z,101709.06
2023-02-27T17:01:04.116Z,101710.19
2023-02-27T17:03:33.314Z,101710.88
2023-02-27T17:06:03.420Z,101706.44
2023-02-27T17:08:31.460Z,101712.28
2023-02-27T17:10:59.534Z,101719.56
2023-02-27T17:13:27.503Z,101719.84
2023-02-27T17:15:55.892Z,101720.72
2023-02-27T17:18:23.881Z,101723.28
2023-02-27T17:20:52.370Z,101725.81
2023-02-27T17:23:20.222Z,101724.13
2023-02-27T17:25:48.243Z,101733.97
2023-02-27T17:28:16.202Z,101734.47
2023-02-27T17:30:43.970Z,101733.19
2023-02-27T17:33:13.072Z,101735.94
2023-02-27T17:35:40.963Z,101742.28
2023-02-27T17:38:10.707Z,101735.25
2023-02-27T17:43:25.541Z,101733.38
2023-02-27T17:45:53.490Z,101739.66
2023-02-27T17:48:21.268Z,101740.66
2023-02-27T17:50:48.987Z,101742.50
2023-02-27T17:53:16.745Z,101738.50
2023-02-27T17:55:44.515Z,101743.66
2023-02-27T17:58:12.589Z,101752.16
2023-02-27T18:00:40.504Z,101750.88
2023-02-27T18:03:08.209Z,101749.72
2023-02-27T18:05:35.936Z,101747.72
2023-02-27T18:08:03.712Z,101755.72
2023-02-27T18:10:31.497Z,101753.84
2023-02-27T18:12:59.357Z,101752.16
2023-02-27T18:15:27.121Z,101751.72
2023-02-27T18:17:56.456Z,101749.97
2023-02-27T18:20:24.203Z,101755.69
2023-02-27T18:22:52.063Z,101744.81
2023-02-27T18:25:20.270Z,101752.22
2023-02-27T18:27:48.001Z,101751.13
2023-02-27T18:30:15.901Z,101757.94
2023-02-27T18:32:43.649Z,101754.63
2023-02-27T18:35:11.435Z,101753.06
2023-02-27T18:37:40.518Z,101760.28
2023-02-27T18:40:08.390Z,101759.16
2023-02-27T18:42:36.339Z,101750.97
2023-02-27T18:45:04.745Z,101759.16
2023-02-27T18:47:34.914Z,101764.00
2023-02-27T18:50:03.171Z,101767.44
2023-02-27T18:52:31.426Z,101765.09
2023-02-27T18:54:59.441Z,101757.69
2023-02-27T18:57:27.159Z,101766.41
2023-02-27T18:59:55.464Z,101767.69
2023-02-27T19:02:23.225Z,101765.38
2023-02-27T19:04:51.147Z,101765.22
2023-02-27T19:07:24.611Z,101760.19
2023-02-27T19:09:59.493Z,101760.59
2023-02-27T19:13:03.095Z,101769.47
2023-02-27T19:15:31.611Z,101766.59
2023-02-27T19:18:05.409Z,101764.34
2023-02-27T19:20:33.815Z,101767.19
2023-02-27T19:23:02.049Z,101766.31
2023-02-27T19:25:30.409Z,101768.50
2023-02-27T19:27:58.554Z,101762.72
2023-02-27T19:30:26.433Z,101766.31
2023-02-27T19:32:54.410Z,101771.75
2023-02-27T19:35:22.214Z,101753.97
2023-02-27T19:37:56.904Z,101763.81
2023-02-27T19:40:24.689Z,101770.78
2023-02-27T19:42:52.617Z,101767.75
2023-02-27T19:45:20.404Z,101768.44
2023-02-27T19:47:48.209Z,101768.69
2023-02-27T19:50:16.500Z,101769.59
2023-02-27T19:52:44.508Z,101769.03
2023-02-27T19:55:12.744Z,101771.94
2023-02-27T19:57:40.625Z,101772.56
2023-02-27T20:00:08.552Z,101765.97
2023-02-27T20:02:37.213Z,101765.44
2023-02-27T20:05:05.179Z,101764.84
2023-02-27T20:07:48.374Z,101770.91
2023-02-27T20:10:16.863Z,101769.88
2023-02-27T20:12:44.793Z,101766.91
2023-02-27T20:15:23.109Z,101778.06
2023-02-27T20:17:51.175Z,101767.91
2023-02-27T20:20:18.957Z,101771.16
2023-02-27T20:22:46.724Z,101769.75
2023-02-27T20:25:14.585Z,101773.63
2023-02-27T20:27:42.409Z,101771.16
2023-02-27T20:30:10.160Z,101766.00
2023-02-27T20:32:38.048Z,101764.44
2023-02-27T20:35:06.530Z,101769.44
2023-02-27T20:37:35.542Z,101766.03
2023-02-27T20:40:04.199Z,101768.03
2023-02-27T20:42:32.156Z,101765.03
2023-02-27T20:44:59.957Z,101770.34
2023-02-27T20:47:28.158Z,101761.16
2023-02-27T20:49:56.505Z,101765.16
2023-02-27T20:52:25.190Z,101771.91
2023-02-27T20:54:53.170Z,101764.59
2023-02-27T20:57:20.942Z,101770.75
2023-02-27T20:59:50.399Z,101764.88
2023-02-27T21:02:18.319Z,101764.44
2023-02-27T21:04:47.364Z,101767.13
2023-02-27T21:07:15.592Z,101775.09
2023-02-27T21:09:43.361Z,101776.66
2023-02-27T21:12:11.141Z,101776.53
2023-02-27T21:14:38.970Z,101774.34
2023-02-27T21:17:06.911Z,101779.94
2023-02-27T21:19:34.677Z,101775.50
2023-02-27T21:22:02.610Z,101774.59
2023-02-27T21:24:32.180Z,101776.75
2023-02-27T21:27:00.162Z,101766.72
2023-02-27T21:29:27.908Z,101779.31
2023-02-27T21:31:55.704Z,101779.44
2023-02-27T21:34:23.488Z,101773.44
2023-02-27T21:36:51.595Z,101770.97
2023-02-27T21:39:19.401Z,101766.56
2023-02-27T21:41:47.323Z,101769.84
2023-02-27T21:44:15.160Z,101777.41
2023-02-27T21:46:43.081Z,101779.28
2023-02-27T21:49:10.817Z,101776.41
2023-02-27T21:51:41.311Z,101770.25
2023-02-27T21:54:09.189Z,101776.41
2023-02-27T21:56:37.992Z,101782.13
2023-02-27T21:59:05.849Z,101777.31
2023-02-27T22:01:33.904Z,101773.63
2023-02-27T22:04:01.975Z,101778.31
2023-02-27T22:06:31.386Z,101773.13
2023-02-27T22:08:59.226Z,101777.81
2023-02-27T22:11:27.393Z,101775.78
2023-02-27T22:13:55.468Z,101775.09
2023-02-27T22:16:23.241Z,101783.38
2023-02-27T22:18:51.568Z,101788.91
2023-02-27T22:21:19.393Z,101790.66
2023-02-27T22:23:47.206Z,101780.19
2023-02-27T22:26:14.971Z,101787.50
2023-02-27T22:28:42.924Z,101794.63
2023-02-27T22:31:10.817Z,101784.03
2023-02-27T22:33:38.746Z,101781.44
2023-02-27T22:36:06.552Z,101788.00
2023-02-27T22:38:34.348Z,101789.41
2023-02-27T22:41:02.173Z,101787.56
2023-02-27T22:43:29.887Z,101786.56
2023-02-27T22:45:57.679Z,101786.56
2023-02-27T22:48:25.519Z,101784.59
2023-02-27T22:50:53.348Z,101784.13
2023-02-27T22:53:22.407Z,101791.00
2023-02-27T22:55:50.117Z,101793.88
2023-02-27T22:58:17.934Z,101795.84
2023-02-27T23:00:45.752Z,101788.84
2023-02-27T23:03:13.524Z,101792.53
2023-02-27T23:05:41.265Z,101801.94
2023-02-27T23:08:10.897Z,101804.50
2023-02-27T23:10:38.684Z,101798.84
2023-02-27T23:13:06.463Z,101804.78
2023-02-27T23:15:34.177Z,101800.25
2023-02-27T23:18:02.008Z,101805.91
2023-02-27T23:20:29.783Z,101807.66
2023-02-27T23:22:57.589Z,101813.94
2023-02-27T23:25:25.552Z,101805.31
2023-02-27T23:27:53.487Z,101807.91
2023-02-27T23:30:21.251Z,101813.59
2023-02-27T23:32:49.128Z,101820.75
2023-02-27T23:35:22.367Z,101812.47
2023-02-27T23:37:50.202Z,101811.59
2023-02-27T23:40:18.036Z,101819.28
2023-02-27T23:42:45.801Z,101823.94
2023-02-27T23:45:27.877Z,101822.97
2023-02-27T23:47:55.689Z,101823.94
2023-02-27T23:50:24.160Z,101820.53
2023-02-27T23:52:52.353Z,101826.19
2023-02-27T23:55:21.451Z,101815.59
2023-02-27T23:57:49.537Z,101803.78
